»·PEaware :: N921VN L37-KIWA

N921VN :: L37-KIWA

FLIGHT INFORMATION

Flight Status: Arrived
Operator: Privately registered:
United States
More flights under this callsign
Pilot: Kevin M. (7)
Aircraft: CESSNA 208 CARAVAN
(C208)
More flights by this aircraft type
Origin: L37 Grand Canyon Caverns
United States
Destination: KIWA Williams Gateway
United States
More flights between these airports :: More routes between these airports
Route: KPRC
File this flight plan on PilotEdge
Remarks: Alphabet Challenge with a quick stop at KPRC. Please don't adjust the flight plan
Altitude:
(Current/Filed)
9,500ft
Speed:
(Current/Filed)
140kts
Departed: 14-Oct-20 12:14 PM
Arrived: 14-Oct-20 01:23 PM
Distance/Time
Traveled:
6525nm/1:09
Distance/Time
To Go:
Arrived

Flight Plot

Page will automatically refresh every two minutes.

Flight plan parsing failed; only flown route is shown


Map Options




Map Legend


Flown Route
Filed Route
Departure Airport
Arrival Airport
Navaid (VOR, NDB)
Fix

Horizontal Profiles

Position Reports

Time Latitude Longitude Heading Altitude Ground
Speed
14-Oct-20 12:08 35.529258 -113.230976 201 5423ft 0kts
14-Oct-20 12:09 35.529258 -113.230976 201 5423ft 0kts
14-Oct-20 12:10 35.529258 -113.230976 201 5423ft 0kts
14-Oct-20 12:11 35.529272 -113.231325 312 5420ft 10kts
14-Oct-20 12:12 35.529168 -113.236818 269 5399ft 28kts
14-Oct-20 12:13 35.528004 -113.245401 246 5404ft 78kts
14-Oct-20 12:14 35.507825 -113.265439 185 6487ft 103kts
14-Oct-20 12:15 35.489658 -113.238937 118 7570ft 139kts
14-Oct-20 12:16 35.455554 -113.217071 141 8577ft 155kts
14-Oct-20 12:17 35.420038 -113.181148 141 9157ft 174kts
14-Oct-20 12:18 35.382042 -113.142753 141 9660ft 177kts
14-Oct-20 12:19 35.342347 -113.102852 141 9708ft 189kts
14-Oct-20 12:20 35.299317 -113.066138 154 9701ft 189kts
14-Oct-20 12:21 35.257918 -113.025809 141 9698ft 190kts
14-Oct-20 12:22 35.216923 -112.984745 141 9697ft 190kts
14-Oct-20 12:23 35.175873 -112.943802 141 9703ft 190kts
14-Oct-20 12:24 35.134623 -112.902887 141 9705ft 191kts
14-Oct-20 12:25 35.093208 -112.862109 141 9706ft 191kts
14-Oct-20 12:26 35.051717 -112.821242 141 9701ft 191kts
14-Oct-20 12:27 35.010471 -112.780711 141 9705ft 191kts
14-Oct-20 12:28 34.968943 -112.739969 141 9703ft 191kts
14-Oct-20 12:29 34.927625 -112.699522 141 9706ft 190kts
14-Oct-20 12:30 34.886218 -112.659089 141 9706ft 190kts
14-Oct-20 12:31 34.844821 -112.618755 141 9708ft 190kts
14-Oct-20 12:32 34.805021 -112.579908 141 9710ft 169kts
14-Oct-20 12:33 34.768046 -112.543795 141 9431ft 171kts
14-Oct-20 12:34 34.730647 -112.508909 142 9274ft 166kts
14-Oct-20 12:35 34.695123 -112.471258 137 8545ft 164kts
14-Oct-20 12:36 34.682478 -112.421805 67 7592ft 170kts
14-Oct-20 12:37 34.674735 -112.391090 273 6176ft 114kts
14-Oct-20 12:38 34.657668 -112.416140 222 4992ft 67kts
14-Oct-20 12:39 34.639022 -112.442257 232 6080ft 108kts
14-Oct-20 12:40 34.614688 -112.467086 206 7492ft 122kts
14-Oct-20 12:41 34.590158 -112.449511 104 8913ft 128kts
14-Oct-20 12:42 34.581857 -112.401658 117 9547ft 176kts
14-Oct-20 12:43 34.537575 -112.368940 151 9415ft 191kts
14-Oct-20 12:45 34.490702 -112.338385 151 9413ft 190kts
14-Oct-20 12:46 34.444065 -112.308037 151 9415ft 190kts
14-Oct-20 12:47 34.397261 -112.277741 151 9407ft 190kts
14-Oct-20 12:48 34.350699 -112.247442 151 9403ft 190kts
14-Oct-20 12:49 34.304223 -112.216942 151 9398ft 189kts
14-Oct-20 12:50 34.257904 -112.186255 151 9396ft 190kts
14-Oct-20 12:51 34.211644 -112.155286 151 9391ft 190kts
14-Oct-20 12:52 34.165394 -112.124057 151 9387ft 190kts
14-Oct-20 12:53 34.119312 -112.092799 151 9383ft 190kts
14-Oct-20 12:54 34.073006 -112.060955 151 9376ft 191kts
14-Oct-20 12:55 34.026818 -112.028927 151 9378ft 192kts
14-Oct-20 12:56 33.980501 -111.996513 151 9370ft 192kts
14-Oct-20 12:57 33.934328 -111.964030 151 9319ft 187kts
14-Oct-20 12:58 33.888738 -111.931696 151 9363ft 192kts
14-Oct-20 12:59 33.843355 -111.899244 151 9354ft 194kts
14-Oct-20 13:00 33.796204 -111.865240 150 9352ft 194kts
14-Oct-20 13:01 33.751307 -111.828849 114 9319ft 200kts
14-Oct-20 13:02 33.781000 -111.816396 302 9361ft 177kts
14-Oct-20 13:03 33.768545 -111.873926 236 5592ft 195kts
14-Oct-20 13:03 33.738513 -111.912712 222 5003ft 178kts
14-Oct-20 13:05 33.695913 -111.957927 231 5264ft 182kts
14-Oct-20 13:05 33.670058 -111.997270 218 5444ft 178kts
14-Oct-20 13:06 33.623021 -112.018371 197 5466ft 183kts
14-Oct-20 13:07 33.574356 -112.035330 192 5463ft 182kts
14-Oct-20 13:08 33.527647 -112.038934 163 5327ft 188kts
14-Oct-20 13:09 33.479611 -112.030634 183 5584ft 181kts
14-Oct-20 13:10 33.427954 -112.031106 183 5398ft 183kts
14-Oct-20 13:11 33.378437 -112.017686 169 5463ft 187kts
14-Oct-20 13:12 33.332181 -111.999272 155 3672ft 163kts
14-Oct-20 13:13 33.295581 -111.971195 125 4097ft 148kts
14-Oct-20 13:14 33.281796 -111.917818 90 3325ft 169kts
14-Oct-20 13:15 33.278592 -111.860618 82 3074ft 184kts
14-Oct-20 13:16 33.279752 -111.804761 111 3134ft 163kts
14-Oct-20 13:17 33.263572 -111.756402 109 4058ft 155kts
14-Oct-20 13:18 33.265425 -111.705587 51 3546ft 180kts
14-Oct-20 13:19 33.263537 -111.655548 116 3451ft 136kts
14-Oct-20 13:20 33.286427 -111.636637 327 2227ft 116kts
14-Oct-20 13:21 33.306068 -111.659199 312 1363ft 49kts
14-Oct-20 13:22 33.304909 -111.667458 183 1359ft 29kts
14-Oct-20 13:23 33.302053 -111.669961 305 1352ft 0kts
14-Oct-20 13:24 0.000408 0.013975 0 7ft 0kts

Navigation Log

Ident Type
Flight plan parsing failed, navigation log unavailable